Topock, Arizona
Current Conditions -  °F | °C
As of 1:56 PM on Thursday 23 Oct 2014 (Local Time) from KEED Reporting Station
Clear Clear  
Wind Chill: 91°   Ceiling: Unl
Heat Index: 91°   Visibility: 10mi
Dew Point: 37°   Wind: 5mph
Humidity: 15%   Direction: 50°NE
Pressure: 29.96"   Gusts: NA
Location:  34.73°N, 114.48°W
Report Text: KEED 232056Z AUTO 05004KT 10SM CLR 33/03 A2996 RMK AO2 SLP116 T03280028 58027
Loading
Personal Weather Stations






























Interactive Weather Map
Tropical Storm Tracking
New forecast layout! Learn more

10-Day Weather Forecast

Advertisements
Track Severe Weather on mobile